createdAt,value
2023-09-08T00:01:09.268Z,69.60
2023-09-08T00:06:10.892Z,69.63
2023-09-08T00:11:10.566Z,69.77
2023-09-08T00:16:12.712Z,69.89
2023-09-08T00:21:12.155Z,69.99
2023-09-08T00:26:10.997Z,70.25
2023-09-08T00:31:10.890Z,70.51
2023-09-08T00:36:10.888Z,70.75
2023-09-08T00:41:12.777Z,70.91
2023-09-08T00:46:13.797Z,71.13
2023-09-08T00:51:14.709Z,71.39
2023-09-08T00:56:16.036Z,71.57
2023-09-08T01:01:19.136Z,71.71
2023-09-08T01:06:20.613Z,71.84
2023-09-08T01:11:24.436Z,71.89
2023-09-08T01:16:25.141Z,71.93
2023-09-08T01:22:00.769Z,72.07
2023-09-08T01:27:00.590Z,72.11
2023-09-08T01:32:02.081Z,72.09
2023-09-08T01:37:04.145Z,72.01
2023-09-08T01:42:03.686Z,71.97
2023-09-08T01:47:02.584Z,71.98
2023-09-08T01:52:01.909Z,72.03
2023-09-08T01:57:01.958Z,72.10
2023-09-08T02:02:01.815Z,72.11
2023-09-08T02:07:03.041Z,72.11
2023-09-08T02:12:02.650Z,72.25
2023-09-08T02:17:02.309Z,72.32
2023-09-08T02:22:01.681Z,72.43
2023-09-08T02:27:02.203Z,72.50
2023-09-08T02:32:02.816Z,72.55
2023-09-08T02:37:02.051Z,72.69
2023-09-08T02:42:01.473Z,72.82
2023-09-08T02:47:01.463Z,72.91
2023-09-08T02:52:01.466Z,72.93
2023-09-08T02:57:00.955Z,73.05
2023-09-08T03:02:01.406Z,73.15
2023-09-08T03:07:00.970Z,73.19
2023-09-08T03:12:00.966Z,73.22
2023-09-08T03:17:01.827Z,73.29
2023-09-08T03:22:01.414Z,73.32
2023-09-08T03:27:01.185Z,73.43
2023-09-08T03:32:02.062Z,73.49
2023-09-08T03:37:02.084Z,73.56
2023-09-08T03:42:02.095Z,73.65
2023-09-08T03:47:03.821Z,73.75
2023-09-08T03:52:03.704Z,73.90
2023-09-08T03:57:05.205Z,74.00
2023-09-08T04:02:04.922Z,74.08
2023-09-08T04:07:04.986Z,74.17
2023-09-08T04:12:05.530Z,74.14
2023-09-08T04:17:05.510Z,74.22
2023-09-08T04:22:06.259Z,74.42
2023-09-08T04:27:05.429Z,74.50
2023-09-08T04:32:10.275Z,74.56
2023-09-08T04:37:10.270Z,74.66
2023-09-08T04:42:10.882Z,74.77
2023-09-08T04:47:10.441Z,74.82
2023-09-08T04:52:12.618Z,74.83
2023-09-08T04:57:22.944Z,74.86
2023-09-08T05:02:25.881Z,74.86
2023-09-08T05:07:26.133Z,74.83
2023-09-08T05:12:26.241Z,74.90
2023-09-08T05:17:25.364Z,74.90
2023-09-08T05:22:26.402Z,74.86
2023-09-08T05:27:26.927Z,74.79
2023-09-08T05:32:27.547Z,74.71
2023-09-08T05:37:31.414Z,74.61
2023-09-08T05:42:31.200Z,74.61
2023-09-08T05:47:30.461Z,74.53
2023-09-08T05:52:30.104Z,74.50
2023-09-08T05:57:30.093Z,74.47
2023-09-08T06:02:30.428Z,74.39
2023-09-08T06:07:31.173Z,74.25
2023-09-08T06:12:30.970Z,74.16
2023-09-08T06:17:30.375Z,74.01
2023-09-08T06:22:31.371Z,73.93
2023-09-08T06:27:34.000Z,73.81
2023-09-08T06:32:34.241Z,73.70
2023-09-08T06:37:40.456Z,73.38
2023-09-08T06:42:42.536Z,73.17
2023-09-08T06:47:47.142Z,72.80
2023-09-08T06:52:47.371Z,72.63
2023-09-08T06:57:47.285Z,72.25
2023-09-08T07:02:47.412Z,72.08
2023-09-08T07:07:51.255Z,71.75
2023-09-08T07:12:51.081Z,71.31
2023-09-08T07:17:54.818Z,71.06
2023-09-08T07:22:55.933Z,70.79
2023-09-08T07:27:55.653Z,70.55
2023-09-08T07:32:56.093Z,70.19
2023-09-08T07:37:57.128Z,69.69
2023-09-08T07:42:57.565Z,69.14
2023-09-08T07:47:57.350Z,68.67
2023-09-08T07:52:58.997Z,67.85
2023-09-08T07:58:00.367Z,67.53
2023-09-08T08:03:01.931Z,67.36
2023-09-08T08:08:02.675Z,66.73
2023-09-08T08:13:01.834Z,65.64
2023-09-08T08:18:04.364Z,65.44
2023-09-08T08:23:04.807Z,65.61
2023-09-08T08:28:04.522Z,65.00
2023-09-08T08:33:03.876Z,64.23
2023-09-08T08:38:04.557Z,63.95
2023-09-08T08:43:05.169Z,64.16
2023-09-08T08:48:08.526Z,63.44
2023-09-08T08:53:23.545Z,63.51
2023-09-08T08:58:28.083Z,63.07
2023-09-08T09:03:34.262Z,62.89
2023-09-08T09:08:36.329Z,62.17
2023-09-08T09:13:36.882Z,61.56
2023-09-08T09:18:56.120Z,61.08
2023-09-08T09:23:57.050Z,60.74
2023-09-08T09:29:01.620Z,60.19
2023-09-08T09:34:11.944Z,59.92
2023-09-08T09:39:12.640Z,59.41
2023-09-08T09:44:13.592Z,58.79
2023-09-08T09:49:19.068Z,58.57
2023-09-08T09:54:19.797Z,56.85
2023-09-08T09:59:19.937Z,55.42
2023-09-08T10:04:20.874Z,54.29
2023-09-08T10:09:25.409Z,52.71
2023-09-08T10:14:26.049Z,53.03
2023-09-08T10:19:29.245Z,52.42
2023-09-08T10:24:35.082Z,51.40
2023-09-08T10:29:37.259Z,49.56
2023-09-08T10:34:39.847Z,48.79
2023-09-08T10:39:43.098Z,48.71
2023-09-08T10:44:45.105Z,45.72
2023-09-08T10:49:47.821Z,45.43
2023-09-08T10:54:56.288Z,44.17
2023-09-08T11:00:01.375Z,43.63
2023-09-08T11:05:01.532Z,43.85
2023-09-08T11:10:01.676Z,43.81
2023-09-08T11:15:02.543Z,44.38
2023-09-08T11:20:02.639Z,44.55
2023-09-08T11:25:05.881Z,42.91
2023-09-08T11:30:08.370Z,42.95
2023-09-08T11:35:12.563Z,43.10
2023-09-08T11:40:15.583Z,42.63
2023-09-08T11:45:19.418Z,41.95
2023-09-08T11:50:20.828Z,39.93
2023-09-08T11:55:30.432Z,40.35
2023-09-08T12:00:34.245Z,40.83
2023-09-08T12:05:41.403Z,41.50
2023-09-08T12:10:47.103Z,42.08
2023-09-08T12:15:47.737Z,42.37
2023-09-08T12:20:49.524Z,41.56
2023-09-08T12:25:56.427Z,41.01
2023-09-08T12:30:57.074Z,40.28
2023-09-08T12:35:56.506Z,40.22
2023-09-08T12:40:56.548Z,39.31
2023-09-08T12:45:58.947Z,38.67
2023-09-08T12:50:59.942Z,38.31
2023-09-08T12:56:09.490Z,38.48
2023-09-08T13:01:08.722Z,38.63
2023-09-08T13:06:09.429Z,37.56
2023-09-08T13:11:14.946Z,37.77
2023-09-08T13:16:17.614Z,38.34
2023-09-08T13:21:16.978Z,37.69
2023-09-08T13:26:19.024Z,36.92
2023-09-08T13:31:21.848Z,34.86
2023-09-08T13:36:21.236Z,35.00
2023-09-08T13:41:23.494Z,34.95
2023-09-08T13:46:35.653Z,35.37
2023-09-08T13:51:42.724Z,34.28
2023-09-08T13:56:45.391Z,34.56
2023-09-08T14:01:53.983Z,34.99
2023-09-08T14:07:08.576Z,34.08
2023-09-08T14:12:33.298Z,32.90
2023-09-08T14:17:41.248Z,31.88
2023-09-08T14:22:41.064Z,32.06
2023-09-08T14:27:42.513Z,31.74
2023-09-08T14:32:42.310Z,32.38
2023-09-08T14:37:41.225Z,33.17
2023-09-08T14:42:40.911Z,34.06
2023-09-08T14:47:40.480Z,32.54
2023-09-08T14:52:42.686Z,32.38
2023-09-08T14:57:43.559Z,32.65
2023-09-08T15:02:42.949Z,33.15
2023-09-08T15:07:42.707Z,34.17
2023-09-08T15:12:41.985Z,34.81
2023-09-08T15:17:44.543Z,35.19
2023-09-08T15:22:44.167Z,35.49
2023-09-08T15:27:44.464Z,36.10
2023-09-08T15:32:43.736Z,36.24
2023-09-08T15:37:45.082Z,36.88
2023-09-08T15:42:46.718Z,37.72
2023-09-08T15:47:46.107Z,38.75
2023-09-08T15:52:54.420Z,39.37
2023-09-08T15:57:59.891Z,40.26
2023-09-08T16:02:59.434Z,40.33
2023-09-08T16:08:12.574Z,40.40
2023-09-08T16:13:26.604Z,40.27
2023-09-08T16:18:26.176Z,40.37
2023-09-08T16:23:36.870Z,40.28
2023-09-08T16:28:37.536Z,41.24
2023-09-08T16:33:40.408Z,40.79
2023-09-08T16:38:40.215Z,41.29
2023-09-08T16:43:40.104Z,41.72
2023-09-08T16:48:41.906Z,42.12
2023-09-08T16:53:50.529Z,42.04
2023-09-08T16:58:51.158Z,42.03
2023-09-08T17:03:51.015Z,42.47
2023-09-08T17:08:52.860Z,42.96
2023-09-08T17:13:53.938Z,43.70
2023-09-08T17:18:54.181Z,45.08
2023-09-08T17:23:53.584Z,46.24
2023-09-08T17:28:53.573Z,46.83
2023-09-08T17:34:02.499Z,47.88
2023-09-08T17:39:02.725Z,48.28
2023-09-08T17:44:02.853Z,48.03
2023-09-08T17:49:04.224Z,48.14
2023-09-08T17:54:03.726Z,48.84
2023-09-08T17:59:03.507Z,49.33
2023-09-08T18:04:03.879Z,50.12
2023-09-08T18:09:03.724Z,50.67
2023-09-08T18:14:04.470Z,51.65
2023-09-08T18:19:05.251Z,52.27
2023-09-08T18:24:06.058Z,52.44
2023-09-08T18:29:08.724Z,52.57
2023-09-08T18:34:10.237Z,52.97
2023-09-08T18:39:11.035Z,53.32
2023-09-08T18:44:12.599Z,54.31
2023-09-08T18:49:11.960Z,55.47
2023-09-08T18:54:13.758Z,55.96
2023-09-08T18:59:14.302Z,56.79
2023-09-08T19:04:14.008Z,57.29
2023-09-08T19:09:14.200Z,57.93
2023-09-08T19:14:15.806Z,58.45
2023-09-08T19:19:16.015Z,58.94
2023-09-08T19:24:19.296Z,59.36
2023-09-08T19:29:20.785Z,59.90
2023-09-08T19:34:21.949Z,60.23
2023-09-08T19:39:26.590Z,60.69
2023-09-08T19:44:28.312Z,61.13
2023-09-08T19:49:36.803Z,61.52
2023-09-08T19:54:48.935Z,61.99
2023-09-08T19:59:51.710Z,62.47
2023-09-08T20:04:57.379Z,63.03
2023-09-08T20:09:58.401Z,63.47
2023-09-08T20:15:01.014Z,63.99
2023-09-08T20:20:00.439Z,64.55
2023-09-08T20:25:00.652Z,65.01
2023-09-08T20:30:02.049Z,65.44
2023-09-08T20:35:02.451Z,65.94
2023-09-08T20:40:04.685Z,66.28
2023-09-08T20:45:05.602Z,66.58
2023-09-08T20:50:05.716Z,66.86
2023-09-08T20:55:05.792Z,67.15
2023-09-08T21:00:06.256Z,67.42
2023-09-08T21:05:07.124Z,67.60
2023-09-08T21:10:07.312Z,67.78
2023-09-08T21:15:08.376Z,68.00
2023-09-08T21:20:14.407Z,68.25
2023-09-08T21:25:15.113Z,68.60
2023-09-08T21:30:15.749Z,68.90
2023-09-08T21:35:16.223Z,69.18
2023-09-08T21:40:17.731Z,69.53
2023-09-08T21:45:17.991Z,69.71
2023-09-08T21:50:17.776Z,69.91
2023-09-08T21:55:19.201Z,70.17
2023-09-08T22:00:23.412Z,70.26
2023-09-08T22:05:23.784Z,70.47
2023-09-08T22:10:24.131Z,70.78
2023-09-08T22:15:23.623Z,71.00
2023-09-08T22:20:23.978Z,71.31
2023-09-08T22:25:24.460Z,71.53
2023-09-08T22:30:24.209Z,71.58
2023-09-08T22:35:23.506Z,71.66
2023-09-08T22:40:23.515Z,71.86
2023-09-08T22:45:23.718Z,72.13
2023-09-08T22:50:24.478Z,72.42
2023-09-08T22:55:26.088Z,72.63
2023-09-08T23:00:26.534Z,72.70
2023-09-08T23:05:26.134Z,72.63
2023-09-08T23:10:29.094Z,72.64
2023-09-08T23:15:29.956Z,72.78
2023-09-08T23:20:31.222Z,72.85
2023-09-08T23:25:32.163Z,72.96
2023-09-08T23:30:32.201Z,73.00
2023-09-08T23:35:31.520Z,73.07
2023-09-08T23:40:31.317Z,73.22
2023-09-08T23:45:30.724Z,73.39
2023-09-08T23:50:57.744Z,73.45
2023-09-08T23:55:58.584Z,73.58
